Starr, Pennsylvania
Current Conditions -  °F | °C
As of 11:53 PM on Wednesday 22 Oct 2014 (Local Time) from KDUJ Reporting Station
Overcast Overcast  
Wind Chill: 38°   Ceiling: 1000
Heat Index: 43°   Visibility: 10mi
Dew Point: 40°   Wind: 9mph
Humidity: 89%   Direction: 350°N
Pressure: 30.09"   Gusts: NA
Location:  41.5317°N, 79.2538°W
Report Text: KDUJ 230353Z AUTO 35008KT 10SM OVC010 06/04 A3009 RMK AO2 SLP197 T00610044
Loading
Personal Weather Stations






























Interactive Weather Map
Tropical Storm Tracking
New forecast layout! Learn more

10-Day Weather Forecast

Advertisements
Track Severe Weather on mobile